Terminal Aerodrome Forecast
Issued by NWS Charleston, WV

Home | Current Version | Previous Version | Text Only | Print | Product List | Glossary On
Versions: 1 2 3 4 5 6 7 8 9 10 11 12 13 14 15 16 17 18 19 20 21 22 23 24 25 26 27
807
FTUS41 KRLX 280244 AAB
TAFHTS
TAF AMD
KHTS 280244Z 2803/2824 00000KT 3SM HZ BKN120
     FM280400 00000KT 1SM BR BKN150
     FM281000 00000KT P6SM SHRA BKN025
     FM281300 00000KT 6SM HZ VCSH OVC070
     FM281500 00000KT 3SM SHRA VCTS OVC035CB
     FM282100 00000KT P6SM BKN050=

USA.gov is the U.S. government's official web portal to all federal, state and local government web resources and services.